createdAt,value
2017-08-26T00:00:15.028Z,6.33
2017-08-26T00:02:47.456Z,7.27
2017-08-26T00:05:13.859Z,6.20
2017-08-26T00:07:40.410Z,6.37
2017-08-26T00:10:06.821Z,7.63
2017-08-26T00:12:33.205Z,8.37
2017-08-26T00:14:59.589Z,6.33
2017-08-26T00:17:25.961Z,5.73
2017-08-26T00:19:52.340Z,7.40
2017-08-26T00:22:18.697Z,5.93
2017-08-26T00:24:45.090Z,6.30
2017-08-26T00:27:11.441Z,6.97
2017-08-26T00:29:37.799Z,5.70
2017-08-26T00:32:04.181Z,6.77
2017-08-26T00:34:30.592Z,8.90
2017-08-26T00:36:57.136Z,6.70
2017-08-26T00:39:23.710Z,8.90
2017-08-26T00:41:50.096Z,7.70
2017-08-26T00:44:16.489Z,6.73
2017-08-26T00:46:42.849Z,6.90
2017-08-26T00:49:09.222Z,7.17
2017-08-26T00:51:35.734Z,7.80
2017-08-26T00:54:02.133Z,6.67
2017-08-26T00:56:28.671Z,6.43
2017-08-26T00:58:55.138Z,10.10
2017-08-26T01:01:21.516Z,7.03
2017-08-26T01:03:47.886Z,8.60
2017-08-26T01:06:14.304Z,6.83
2017-08-26T01:08:40.871Z,6.00
2017-08-26T01:11:07.318Z,7.80
2017-08-26T01:13:33.732Z,6.40
2017-08-26T01:16:00.124Z,6.57
2017-08-26T01:18:26.525Z,7.90
2017-08-26T01:20:52.930Z,6.07
2017-08-26T01:23:19.311Z,7.03
2017-08-26T01:25:45.689Z,7.70
2017-08-26T01:28:12.129Z,9.80
2017-08-26T01:30:39.120Z,6.33
2017-08-26T01:33:06.259Z,5.73
2017-08-26T01:35:32.738Z,6.60
2017-08-26T01:37:59.106Z,6.97
2017-08-26T01:40:25.469Z,7.90
2017-08-26T01:42:51.857Z,6.33
2017-08-26T01:45:18.243Z,8.63
2017-08-26T01:47:44.776Z,7.20
2017-08-26T01:50:11.214Z,7.63
2017-08-26T01:52:37.596Z,7.70
2017-08-26T01:55:03.974Z,7.47
2017-08-26T01:57:30.344Z,6.93
2017-08-26T01:59:56.746Z,7.47
2017-08-26T02:02:23.137Z,9.40
2017-08-26T02:04:50.325Z,6.87
2017-08-26T02:07:16.959Z,6.93
2017-08-26T02:09:43.365Z,7.50
2017-08-26T02:12:09.723Z,9.77
2017-08-26T02:14:36.137Z,6.77
2017-08-26T02:17:02.508Z,6.97
2017-08-26T02:19:28.900Z,13.70
2017-08-26T02:21:56.213Z,9.53
2017-08-26T02:24:22.595Z,7.87
2017-08-26T02:26:48.978Z,12.53
2017-08-26T02:29:15.455Z,8.30
2017-08-26T02:31:41.822Z,7.80
2017-08-26T02:34:08.210Z,8.03
2017-08-26T02:36:34.657Z,8.93
2017-08-26T02:39:01.029Z,10.97
2017-08-26T02:41:27.436Z,8.90
2017-08-26T02:43:53.850Z,7.97
2017-08-26T02:46:20.230Z,7.70
2017-08-26T02:48:46.593Z,8.53
2017-08-26T02:51:13.002Z,7.83
2017-08-26T02:53:39.394Z,7.33
2017-08-26T02:56:05.761Z,10.50
2017-08-26T02:58:34.296Z,8.77
2017-08-26T03:01:00.682Z,8.97
2017-08-26T03:03:27.049Z,9.00
2017-08-26T03:05:53.439Z,8.90
2017-08-26T03:08:19.804Z,8.90
2017-08-26T03:10:46.203Z,11.60
2017-08-26T03:13:12.612Z,7.20
2017-08-26T03:15:39.010Z,8.00
2017-08-26T03:18:05.413Z,6.83
2017-08-26T03:20:31.819Z,9.00
2017-08-26T03:22:58.216Z,7.93
2017-08-26T03:25:24.598Z,8.20
2017-08-26T03:27:51.004Z,6.97
2017-08-26T03:30:17.388Z,8.80
2017-08-26T03:32:43.773Z,8.83
2017-08-26T03:35:11.093Z,7.13
2017-08-26T03:37:37.473Z,9.97
2017-08-26T03:40:03.856Z,8.77
2017-08-26T03:42:30.233Z,7.10
2017-08-26T03:44:56.633Z,8.23
2017-08-26T03:47:23.418Z,7.63
2017-08-26T03:49:49.812Z,7.00
2017-08-26T03:52:16.204Z,8.27
2017-08-26T03:54:42.602Z,7.27
2017-08-26T03:57:08.992Z,8.10
2017-08-26T03:59:35.428Z,9.53
2017-08-26T04:02:01.835Z,8.43
2017-08-26T04:04:28.251Z,7.70
2017-08-26T04:06:54.682Z,7.50
2017-08-26T04:09:21.108Z,9.07
2017-08-26T04:11:47.509Z,12.90
2017-08-26T04:14:13.886Z,7.80
2017-08-26T04:16:40.264Z,8.47
2017-08-26T04:19:06.654Z,7.53
2017-08-26T04:21:33.038Z,8.23
2017-08-26T04:23:59.411Z,8.23
2017-08-26T04:26:25.797Z,7.90
2017-08-26T04:28:52.196Z,8.10
2017-08-26T04:31:18.602Z,7.93
2017-08-26T04:33:45.028Z,6.83
2017-08-26T04:36:11.457Z,7.20
2017-08-26T04:38:37.874Z,6.80
2017-08-26T04:41:04.267Z,9.30
2017-08-26T04:43:30.659Z,8.77
2017-08-26T04:45:57.056Z,8.57
2017-08-26T04:48:23.438Z,8.57
2017-08-26T04:50:49.887Z,8.10
2017-08-26T04:53:16.315Z,7.93
2017-08-26T04:55:42.729Z,8.47
2017-08-26T04:58:09.128Z,9.47
2017-08-26T05:00:35.521Z,7.97
2017-08-26T05:03:01.891Z,8.67
2017-08-26T05:05:28.292Z,8.70
2017-08-26T05:07:54.679Z,8.90
2017-08-26T05:10:21.078Z,9.03
2017-08-26T05:12:47.438Z,9.00
2017-08-26T05:15:13.822Z,9.83
2017-08-26T05:17:40.208Z,8.60
2017-08-26T05:20:06.616Z,11.77
2017-08-26T05:22:33.027Z,8.33
2017-08-26T05:24:59.487Z,8.77
2017-08-26T05:27:25.878Z,8.77
2017-08-26T05:29:52.257Z,9.13
2017-08-26T05:32:18.682Z,7.87
2017-08-26T05:34:45.065Z,8.40
2017-08-26T05:37:11.476Z,10.17
2017-08-26T05:39:37.867Z,13.97
2017-08-26T05:42:04.243Z,9.10
2017-08-26T05:44:30.643Z,9.00
2017-08-26T05:46:57.073Z,9.27
2017-08-26T05:49:23.477Z,9.10
2017-08-26T05:51:49.885Z,9.10
2017-08-26T05:54:16.314Z,7.83
2017-08-26T05:56:42.684Z,8.60
2017-08-26T05:59:09.043Z,10.00
2017-08-26T06:01:35.475Z,9.97
2017-08-26T06:04:01.862Z,13.70
2017-08-26T06:06:28.230Z,10.10
2017-08-26T06:08:54.638Z,9.70
2017-08-26T06:11:21.022Z,10.60
2017-08-26T06:13:47.451Z,8.93
2017-08-26T06:16:13.853Z,8.87
2017-08-26T06:18:40.253Z,9.53
2017-08-26T06:21:06.655Z,11.13
2017-08-26T06:23:33.047Z,9.80
2017-08-26T06:25:59.438Z,9.07
2017-08-26T06:28:25.844Z,8.50
2017-08-26T06:30:52.230Z,12.50
2017-08-26T06:33:18.591Z,9.47
2017-08-26T06:35:44.947Z,10.27
2017-08-26T06:38:11.347Z,10.13
2017-08-26T06:40:37.768Z,10.30
2017-08-26T06:43:04.146Z,10.00
2017-08-26T06:45:30.529Z,11.53
2017-08-26T06:47:56.937Z,10.57
2017-08-26T06:50:23.291Z,9.00
2017-08-26T06:52:49.682Z,11.47
2017-08-26T06:55:16.064Z,9.73
2017-08-26T06:57:42.502Z,9.30
2017-08-26T07:00:08.925Z,10.47
2017-08-26T07:02:35.340Z,9.40
2017-08-26T07:05:01.738Z,10.70
2017-08-26T07:07:28.128Z,9.20
2017-08-26T07:09:54.546Z,9.60
2017-08-26T07:12:20.924Z,9.63
2017-08-26T07:14:47.305Z,10.27
2017-08-26T07:17:13.701Z,9.07
2017-08-26T07:19:40.101Z,9.77
2017-08-26T07:22:06.506Z,10.07
2017-08-26T07:24:32.874Z,9.40
2017-08-26T07:26:59.238Z,9.80
2017-08-26T07:29:25.639Z,9.30
2017-08-26T07:31:52.034Z,9.70
2017-08-26T07:34:18.435Z,8.57
2017-08-26T07:36:45.283Z,8.70
2017-08-26T07:39:11.678Z,9.00
2017-08-26T07:41:38.066Z,8.00
2017-08-26T07:44:04.691Z,8.53
2017-08-26T07:46:31.091Z,7.60
2017-08-26T07:48:57.484Z,7.47
2017-08-26T07:51:23.855Z,6.50
2017-08-26T07:53:50.227Z,6.90
2017-08-26T07:56:16.627Z,6.50
2017-08-26T07:58:43.005Z,5.73
2017-08-26T08:01:09.443Z,6.77
2017-08-26T08:03:35.849Z,5.27
2017-08-26T08:06:02.264Z,6.60
2017-08-26T08:08:28.691Z,7.53
2017-08-26T08:10:55.068Z,7.23
2017-08-26T08:13:21.475Z,6.30
2017-08-26T08:15:47.869Z,5.93
2017-08-26T08:18:14.316Z,6.70
2017-08-26T08:20:40.775Z,6.10
2017-08-26T08:23:07.205Z,6.80
2017-08-26T08:25:33.578Z,5.80
2017-08-26T08:27:59.963Z,6.37
2017-08-26T08:30:26.345Z,7.63
2017-08-26T08:32:52.773Z,6.53
2017-08-26T08:35:19.150Z,5.50
2017-08-26T08:37:45.624Z,5.00
2017-08-26T08:40:12.083Z,5.70
2017-08-26T08:42:38.479Z,6.30
2017-08-26T08:45:04.883Z,6.10
2017-08-26T08:47:31.268Z,7.03
2017-08-26T08:49:57.682Z,6.33
2017-08-26T08:52:24.089Z,7.43
2017-08-26T08:54:51.577Z,6.50
2017-08-26T08:57:18.003Z,6.93
2017-08-26T08:59:44.421Z,6.33
2017-08-26T09:02:10.798Z,6.43
2017-08-26T09:04:37.185Z,5.73
2017-08-26T09:07:03.585Z,6.90
2017-08-26T09:09:29.985Z,5.60
2017-08-26T09:11:56.413Z,6.43
2017-08-26T09:14:22.869Z,8.33
2017-08-26T09:16:49.274Z,7.40
2017-08-26T09:19:15.689Z,7.00
2017-08-26T09:21:42.086Z,7.70
2017-08-26T09:24:08.457Z,8.83
2017-08-26T09:26:34.844Z,7.07
2017-08-26T09:29:01.223Z,7.80
2017-08-26T09:31:27.604Z,8.60
2017-08-26T09:33:54.000Z,9.13
2017-08-26T09:36:20.425Z,8.27
2017-08-26T09:38:46.815Z,8.53
2017-08-26T09:41:13.246Z,9.80
2017-08-26T09:43:39.662Z,9.37
2017-08-26T09:46:06.071Z,10.20
2017-08-26T09:48:32.470Z,8.80
2017-08-26T09:50:58.920Z,8.73
2017-08-26T09:53:25.342Z,10.03
2017-08-26T09:55:51.790Z,13.23
2017-08-26T09:58:18.212Z,13.53
2017-08-26T10:00:44.662Z,13.60
2017-08-26T10:03:11.054Z,13.50
2017-08-26T10:05:37.453Z,11.90
2017-08-26T10:08:03.850Z,15.07
2017-08-26T10:10:30.237Z,14.70
2017-08-26T10:12:56.614Z,15.43
2017-08-26T10:15:23.017Z,12.80
2017-08-26T10:17:49.502Z,16.33
2017-08-26T10:20:15.873Z,15.23
2017-08-26T10:22:42.268Z,13.37
2017-08-26T10:25:08.683Z,11.33
2017-08-26T10:27:35.058Z,12.40
2017-08-26T10:30:01.576Z,11.10
2017-08-26T10:32:27.994Z,14.23
2017-08-26T10:34:54.440Z,10.33
2017-08-26T10:37:20.889Z,14.03
2017-08-26T10:39:47.316Z,12.47
2017-08-26T10:42:13.730Z,14.60
2017-08-26T10:44:40.172Z,14.23
2017-08-26T10:47:06.664Z,14.50
2017-08-26T10:49:33.105Z,14.77
2017-08-26T10:51:59.558Z,12.77
2017-08-26T10:54:26.020Z,13.90
2017-08-26T10:56:52.460Z,13.40
2017-08-26T10:59:18.852Z,14.53
2017-08-26T11:01:45.256Z,15.20
2017-08-26T11:04:11.660Z,14.37
2017-08-26T11:06:38.078Z,18.03
2017-08-26T11:09:04.549Z,15.70
2017-08-26T11:11:31.005Z,17.00
2017-08-26T11:13:57.406Z,17.93
2017-08-26T11:16:23.858Z,16.63
2017-08-26T11:18:50.277Z,18.57
2017-08-26T11:21:17.011Z,17.10
2017-08-26T11:23:43.503Z,16.63
2017-08-26T11:26:09.901Z,19.97
2017-08-26T11:28:36.324Z,22.70
2017-08-26T11:31:02.674Z,21.60
2017-08-26T11:33:29.056Z,21.90
2017-08-26T11:35:55.468Z,22.37
2017-08-26T11:38:21.864Z,22.27
2017-08-26T11:40:48.244Z,24.47
2017-08-26T11:43:14.652Z,22.57
2017-08-26T11:45:41.077Z,22.43
2017-08-26T11:48:07.478Z,19.63
2017-08-26T11:50:33.865Z,21.77
2017-08-26T11:53:00.256Z,23.80
2017-08-26T11:55:26.664Z,19.57
2017-08-26T11:57:53.134Z,20.40
2017-08-26T12:00:19.557Z,21.20
2017-08-26T12:02:45.999Z,20.60
2017-08-26T12:05:12.405Z,17.97
2017-08-26T12:07:38.894Z,20.50
2017-08-26T12:10:05.316Z,21.57
2017-08-26T12:12:31.929Z,21.60
2017-08-26T12:14:58.333Z,18.60
2017-08-26T12:17:24.848Z,19.73
2017-08-26T12:19:51.294Z,22.27
2017-08-26T12:22:17.774Z,21.37
2017-08-26T12:24:44.165Z,20.17
2017-08-26T12:27:11.378Z,21.63
2017-08-26T12:29:37.944Z,22.30
2017-08-26T12:32:04.416Z,21.03
2017-08-26T12:34:30.823Z,20.17
2017-08-26T12:36:57.242Z,18.47
2017-08-26T12:39:23.637Z,15.80
2017-08-26T12:41:50.125Z,14.63
2017-08-26T12:44:16.509Z,15.17
2017-08-26T12:46:43.343Z,14.20
2017-08-26T12:49:09.790Z,17.40
2017-08-26T12:51:39.301Z,18.63
2017-08-26T13:07:06.007Z,17.07
2017-08-26T13:09:32.781Z,17.10
2017-08-26T13:12:00.313Z,21.30
2017-08-26T13:14:26.824Z,18.90
2017-08-26T13:16:53.451Z,20.67
2017-08-26T13:19:19.838Z,21.80
2017-08-26T13:21:46.273Z,20.97
2017-08-26T13:24:12.684Z,18.17
2017-08-26T13:26:39.060Z,18.07
2017-08-26T13:29:05.623Z,19.43
2017-08-26T13:31:32.075Z,17.30
2017-08-26T13:33:58.497Z,18.30
2017-08-26T13:36:24.899Z,18.70
2017-08-26T13:38:51.341Z,18.13
2017-08-26T13:41:17.703Z,20.70
2017-08-26T13:43:44.062Z,19.27
2017-08-26T13:46:10.530Z,20.57
2017-08-26T13:48:37.083Z,19.47
2017-08-26T13:51:03.604Z,21.10
2017-08-26T13:53:30.029Z,20.40
2017-08-26T13:55:56.553Z,21.47
2017-08-26T13:58:22.992Z,21.27
2017-08-26T14:00:49.564Z,20.70
2017-08-26T14:03:16.088Z,18.70
2017-08-26T14:05:42.640Z,18.90
2017-08-26T14:08:09.051Z,17.93
2017-08-26T14:10:35.462Z,19.10
2017-08-26T14:13:01.934Z,18.33
2017-08-26T14:15:28.413Z,20.30
2017-08-26T14:17:54.833Z,19.63
2017-08-26T14:20:21.554Z,20.40
2017-08-26T14:22:47.976Z,21.07
2017-08-26T14:25:14.415Z,18.13
2017-08-26T14:27:40.803Z,20.43
2017-08-26T14:30:07.593Z,19.50
2017-08-26T14:32:33.989Z,18.13
2017-08-26T14:35:00.371Z,20.27
2017-08-26T14:37:26.747Z,20.70
2017-08-26T14:39:54.350Z,15.70
2017-08-26T14:42:20.751Z,15.93
2017-08-26T14:44:47.135Z,16.00
2017-08-26T14:47:13.837Z,16.37
2017-08-26T14:49:40.210Z,17.43
2017-08-26T14:52:06.598Z,18.93
2017-08-26T14:54:33.007Z,18.17
2017-08-26T14:56:59.507Z,16.87
2017-08-26T14:59:25.919Z,20.40
2017-08-26T15:01:52.396Z,19.23
2017-08-26T15:04:18.885Z,18.07
2017-08-26T15:06:45.265Z,19.07
2017-08-26T15:09:15.537Z,21.37
2017-08-26T15:11:42.564Z,20.63
2017-08-26T15:14:09.108Z,19.53
2017-08-26T15:16:35.524Z,18.50
2017-08-26T15:19:01.928Z,17.90
2017-08-26T15:21:28.332Z,17.00
2017-08-26T15:23:54.771Z,20.10
2017-08-26T15:26:21.214Z,18.10
2017-08-26T15:28:47.615Z,20.00
2017-08-26T15:31:14.020Z,19.10
2017-08-26T15:33:40.461Z,18.20
2017-08-26T15:36:06.908Z,23.27
2017-08-26T15:38:33.298Z,17.93
2017-08-26T15:40:59.693Z,20.43
2017-08-26T15:43:26.126Z,18.13
2017-08-26T15:45:52.563Z,21.27
2017-08-26T15:48:18.960Z,17.07
2017-08-26T15:50:45.407Z,18.60
2017-08-26T15:53:11.820Z,15.10
2017-08-26T15:55:38.334Z,18.57
2017-08-26T15:58:04.817Z,20.13
2017-08-26T16:00:31.232Z,24.10
2017-08-26T16:02:57.636Z,19.90
2017-08-26T16:05:24.056Z,20.70
2017-08-26T16:07:50.430Z,21.73
2017-08-26T16:10:16.820Z,20.30
2017-08-26T16:12:43.515Z,25.20
2017-08-26T16:15:09.895Z,20.57
2017-08-26T16:17:36.292Z,19.73
2017-08-26T16:20:02.693Z,18.30
2017-08-26T16:22:29.141Z,18.50
2017-08-26T16:24:55.586Z,17.50
2017-08-26T16:27:22.014Z,14.90
2017-08-26T16:29:48.469Z,19.93
2017-08-26T16:32:14.831Z,16.37
2017-08-26T16:34:41.199Z,15.40
2017-08-26T16:37:07.596Z,12.37
2017-08-26T16:39:33.988Z,12.47
2017-08-26T16:42:00.355Z,11.47
2017-08-26T16:44:26.715Z,11.80
2017-08-26T16:46:53.096Z,13.00
2017-08-26T16:49:19.468Z,12.93
2017-08-26T16:51:45.879Z,10.60
2017-08-26T16:54:12.257Z,13.70
2017-08-26T16:56:38.705Z,10.60
2017-08-26T16:59:05.147Z,10.93
2017-08-26T17:01:31.541Z,11.23
2017-08-26T17:03:57.967Z,12.33
2017-08-26T17:06:24.485Z,15.10
2017-08-26T17:08:50.886Z,13.33
2017-08-26T17:11:17.383Z,12.03
2017-08-26T17:13:43.850Z,12.47
2017-08-26T17:16:10.379Z,11.83
2017-08-26T17:18:37.002Z,11.70
2017-08-26T17:21:03.452Z,12.93
2017-08-26T17:23:29.859Z,13.47
2017-08-26T17:25:56.431Z,15.50
2017-08-26T17:28:22.804Z,15.63
2017-08-26T17:30:49.204Z,13.00
2017-08-26T17:33:15.608Z,13.23
2017-08-26T17:35:42.120Z,16.93
2017-08-26T17:38:08.503Z,12.50
2017-08-26T17:40:35.982Z,14.87
2017-08-26T17:43:02.491Z,13.60
2017-08-26T17:45:28.900Z,12.03
2017-08-26T17:47:55.372Z,9.60
2017-08-26T17:50:21.751Z,10.97
2017-08-26T17:52:48.111Z,12.17
2017-08-26T17:55:14.533Z,11.27
2017-08-26T17:57:40.915Z,16.60
2017-08-26T18:00:07.262Z,10.97
2017-08-26T18:02:33.655Z,10.60
2017-08-26T18:05:00.019Z,11.00
2017-08-26T18:07:26.415Z,11.07
2017-08-26T18:09:52.838Z,11.50
2017-08-26T18:12:19.197Z,14.70
2017-08-26T18:14:45.547Z,11.43
2017-08-26T18:17:11.933Z,12.17
2017-08-26T18:19:38.319Z,11.93
2017-08-26T18:22:04.712Z,17.87
2017-08-26T18:24:31.142Z,11.67
2017-08-26T18:26:57.530Z,14.87
2017-08-26T18:29:23.910Z,13.83
2017-08-26T18:31:50.336Z,14.20
2017-08-26T18:34:16.780Z,11.50
2017-08-26T18:36:43.149Z,14.47
2017-08-26T18:39:09.529Z,19.27
2017-08-26T18:41:35.926Z,14.17
2017-08-26T18:44:02.365Z,18.30
2017-08-26T18:46:28.980Z,10.70
2017-08-26T18:48:55.354Z,11.27
2017-08-26T18:51:21.764Z,11.50
2017-08-26T18:53:49.047Z,12.00
2017-08-26T18:56:15.420Z,16.63
2017-08-26T18:58:41.815Z,11.83
2017-08-26T19:01:08.197Z,14.40
2017-08-26T19:03:34.600Z,14.10
2017-08-26T19:06:01.030Z,12.40
2017-08-26T19:08:27.459Z,13.07
2017-08-26T19:10:53.954Z,13.50
2017-08-26T19:13:20.402Z,16.73
2017-08-26T19:15:46.765Z,14.73
2017-08-26T19:18:13.149Z,16.53
2017-08-26T19:20:39.537Z,23.07
2017-08-26T19:23:05.971Z,27.47
2017-08-26T19:25:32.420Z,23.33
2017-08-26T19:27:58.794Z,21.93
2017-08-26T19:30:25.246Z,22.43
2017-08-26T19:32:51.670Z,23.13
2017-08-26T19:35:18.052Z,18.17
2017-08-26T19:37:44.434Z,22.90
2017-08-26T19:40:10.820Z,17.80
2017-08-26T19:42:37.223Z,20.33
2017-08-26T19:45:03.607Z,21.37
2017-08-26T19:47:30.090Z,18.43
2017-08-26T19:49:56.545Z,17.03
2017-08-26T19:52:22.918Z,17.00
2017-08-26T19:54:49.349Z,17.40
2017-08-26T19:57:15.730Z,20.20
2017-08-26T19:59:42.164Z,19.57
2017-08-26T20:02:08.597Z,16.30
2017-08-26T20:04:34.992Z,15.97
2017-08-26T20:07:01.375Z,16.80
2017-08-26T20:09:27.754Z,15.70
2017-08-26T20:11:54.163Z,15.43
2017-08-26T20:14:20.518Z,14.73
2017-08-26T20:16:46.931Z,15.07
2017-08-26T20:19:13.278Z,18.20
2017-08-26T20:21:39.766Z,15.30
2017-08-26T20:24:06.143Z,15.90
2017-08-26T20:26:32.494Z,15.10
2017-08-26T20:28:58.890Z,20.90
2017-08-26T20:31:25.291Z,17.57
2017-08-26T20:33:51.710Z,18.83
2017-08-26T20:36:18.151Z,17.43
2017-08-26T20:38:44.583Z,17.00
2017-08-26T20:41:10.974Z,15.23
2017-08-26T20:43:37.337Z,15.97
2017-08-26T20:46:03.734Z,14.50
2017-08-26T20:48:30.184Z,16.73
2017-08-26T20:50:56.580Z,16.47
2017-08-26T20:53:23.042Z,16.73
2017-08-26T20:55:49.471Z,18.20
2017-08-26T20:58:15.984Z,15.80
2017-08-26T21:00:42.429Z,17.23
2017-08-26T21:03:08.828Z,18.83
2017-08-26T21:05:35.219Z,17.40
2017-08-26T21:08:01.638Z,19.20
2017-08-26T21:10:28.054Z,16.37
2017-08-26T21:12:54.464Z,17.33
2017-08-26T21:15:20.861Z,16.93
2017-08-26T21:17:47.247Z,18.93
2017-08-26T21:20:13.625Z,17.83
2017-08-26T21:22:40.014Z,17.80
2017-08-26T21:25:06.378Z,18.00
2017-08-26T21:27:32.742Z,48.80
2017-08-26T21:29:59.156Z,20.00
2017-08-26T21:32:25.561Z,15.20
2017-08-26T21:34:51.932Z,17.73
2017-08-26T21:37:18.290Z,17.47
2017-08-26T21:39:44.673Z,17.63
2017-08-26T21:42:11.090Z,17.07
2017-08-26T21:44:37.450Z,17.20
2017-08-26T21:47:03.808Z,16.30
2017-08-26T21:49:30.411Z,16.67
2017-08-26T21:51:56.875Z,15.13
2017-08-26T21:54:23.268Z,17.60
2017-08-26T21:56:49.662Z,16.37
2017-08-26T21:59:16.022Z,16.60
2017-08-26T22:01:42.384Z,17.83
2017-08-26T22:04:08.751Z,19.53
2017-08-26T22:06:35.208Z,19.30
2017-08-26T22:09:01.621Z,18.20
2017-08-26T22:11:28.021Z,18.43
2017-08-26T22:13:54.400Z,19.40
2017-08-26T22:16:20.779Z,20.23
2017-08-26T22:18:47.156Z,17.87
2017-08-26T22:21:13.610Z,19.50
2017-08-26T22:23:40.005Z,18.60
2017-08-26T22:26:06.380Z,17.17
2017-08-26T22:28:32.750Z,18.83
2017-08-26T22:30:59.133Z,19.43
2017-08-26T22:33:25.555Z,18.87
2017-08-26T22:35:51.907Z,18.57
2017-08-26T22:38:18.270Z,18.60
2017-08-26T22:40:44.654Z,17.27
2017-08-26T22:43:11.014Z,18.50
2017-08-26T22:45:40.671Z,18.90
2017-08-26T22:48:10.196Z,19.73
2017-08-26T22:50:39.849Z,19.30
2017-08-26T22:53:09.287Z,18.20
2017-08-26T22:55:39.176Z,19.40
2017-08-26T22:58:07.861Z,19.53
2017-08-26T23:00:34.465Z,18.03
2017-08-26T23:03:00.830Z,19.53
2017-08-26T23:05:27.182Z,20.37
2017-08-26T23:07:53.560Z,17.27
2017-08-26T23:10:19.946Z,17.37
2017-08-26T23:12:51.223Z,18.30
2017-08-26T23:15:19.284Z,18.30
2017-08-26T23:17:45.692Z,19.23
2017-08-26T23:20:14.749Z,18.80
2017-08-26T23:22:42.669Z,19.10
2017-08-26T23:25:10.053Z,20.30
2017-08-26T23:27:36.427Z,19.53
2017-08-26T23:30:03.355Z,19.97
2017-08-26T23:32:29.742Z,20.83
2017-08-26T23:34:56.289Z,21.53
2017-08-26T23:37:22.653Z,19.20
2017-08-26T23:39:49.076Z,18.37
2017-08-26T23:42:15.455Z,18.40
2017-08-26T23:44:41.826Z,19.97
2017-08-26T23:47:08.246Z,20.20
2017-08-26T23:49:34.695Z,20.53
2017-08-26T23:52:01.060Z,17.77
2017-08-26T23:54:27.406Z,22.67
2017-08-26T23:56:53.779Z,22.80
2017-08-26T23:59:20.495Z,19.30
